createdAt,value
2018-02-22T00:01:48.036Z,78.60
2018-02-22T00:04:16.328Z,78.70
2018-02-22T00:06:44.644Z,78.60
2018-02-22T00:09:12.935Z,78.30
2018-02-22T00:11:41.251Z,78.50
2018-02-22T00:14:09.553Z,78.70
2018-02-22T00:16:37.872Z,78.80
2018-02-22T00:19:06.168Z,78.90
2018-02-22T00:21:34.488Z,78.90
2018-02-22T00:24:02.789Z,78.90
2018-02-22T00:26:31.108Z,79.00
2018-02-22T00:28:59.412Z,79.00
2018-02-22T00:31:27.734Z,79.10
2018-02-22T00:33:56.026Z,79.20
2018-02-22T00:36:24.340Z,79.20
2018-02-22T00:38:52.633Z,79.30
2018-02-22T00:41:20.969Z,79.70
2018-02-22T00:43:49.265Z,80.00
2018-02-22T00:46:17.571Z,80.50
2018-02-22T00:48:45.896Z,80.50
2018-02-22T00:51:14.196Z,80.50
2018-02-22T00:53:42.508Z,81.40
2018-02-22T00:56:10.801Z,80.50
2018-02-22T00:58:39.108Z,80.40
2018-02-22T01:01:07.399Z,80.50
2018-02-22T01:03:35.717Z,80.70
2018-02-22T01:06:04.016Z,80.80
2018-02-22T01:08:32.333Z,80.80
2018-02-22T01:11:00.627Z,80.60
2018-02-22T01:13:28.944Z,80.40
2018-02-22T01:15:57.236Z,80.30
2018-02-22T01:18:25.556Z,80.20
2018-02-22T01:20:53.848Z,80.00
2018-02-22T01:23:22.164Z,80.10
2018-02-22T01:25:50.468Z,80.50
2018-02-22T01:28:18.793Z,80.70
2018-02-22T01:30:47.089Z,80.60
2018-02-22T01:33:15.400Z,80.40
2018-02-22T01:35:43.692Z,80.50
2018-02-22T01:38:12.004Z,80.70
2018-02-22T01:40:40.297Z,80.10
2018-02-22T01:43:08.609Z,80.10
2018-02-22T01:45:36.900Z,80.10
2018-02-22T01:48:05.215Z,80.10
2018-02-22T01:50:33.507Z,80.10
2018-02-22T01:53:01.866Z,80.10
2018-02-22T01:55:30.136Z,80.00
2018-02-22T01:57:58.453Z,80.00
2018-02-22T02:00:26.760Z,80.10
2018-02-22T02:02:55.081Z,80.20
2018-02-22T02:05:23.377Z,80.30
2018-02-22T02:07:51.695Z,80.40
2018-02-22T02:10:19.995Z,80.40
2018-02-22T02:12:48.312Z,80.30
2018-02-22T02:15:16.600Z,80.40
2018-02-22T02:17:44.921Z,80.50
2018-02-22T02:20:13.211Z,80.50
2018-02-22T02:22:41.539Z,80.50
2018-02-22T02:25:09.845Z,80.50
2018-02-22T02:27:38.149Z,80.60
2018-02-22T02:30:06.466Z,80.40
2018-02-22T02:32:34.755Z,80.30
2018-02-22T02:35:03.072Z,80.50
2018-02-22T02:37:31.369Z,80.30
2018-02-22T02:39:59.689Z,80.40
2018-02-22T02:42:27.987Z,80.70
2018-02-22T02:44:56.304Z,80.80
2018-02-22T02:47:24.600Z,81.00
2018-02-22T02:49:52.916Z,80.90
2018-02-22T02:52:21.212Z,80.90
2018-02-22T02:54:49.532Z,80.80
2018-02-22T02:57:17.828Z,80.70
2018-02-22T02:59:46.139Z,80.60
2018-02-22T03:02:14.436Z,80.70
2018-02-22T03:04:42.752Z,80.60
2018-02-22T03:07:11.048Z,80.40
2018-02-22T03:09:39.355Z,80.40
2018-02-22T03:12:07.644Z,80.40
2018-02-22T03:14:35.960Z,80.50
2018-02-22T03:17:04.257Z,80.60
2018-02-22T03:19:32.572Z,80.70
2018-02-22T03:22:00.859Z,80.80
2018-02-22T03:24:29.172Z,80.80
2018-02-22T03:26:57.464Z,80.80
2018-02-22T03:29:25.782Z,80.70
2018-02-22T03:31:54.080Z,80.50
2018-02-22T03:34:22.403Z,80.40
2018-02-22T03:36:50.696Z,80.40
2018-02-22T03:39:19.013Z,80.30
2018-02-22T03:41:47.308Z,80.30
2018-02-22T03:44:15.638Z,80.30
2018-02-22T03:46:43.927Z,80.10
2018-02-22T03:49:12.215Z,79.90
2018-02-22T03:51:40.532Z,80.80
2018-02-22T03:54:08.832Z,79.80
2018-02-22T03:56:37.148Z,79.90
2018-02-22T03:59:05.446Z,79.70
2018-02-22T04:01:33.759Z,79.80
2018-02-22T04:04:02.054Z,80.10
2018-02-22T04:06:30.368Z,80.00
2018-02-22T04:08:58.663Z,80.00
2018-02-22T04:11:26.979Z,80.00
2018-02-22T04:13:55.273Z,79.90
2018-02-22T04:16:23.583Z,79.80
2018-02-22T04:18:51.958Z,79.70
2018-02-22T04:21:20.276Z,79.70
2018-02-22T04:23:48.568Z,79.80
2018-02-22T04:26:16.884Z,79.80
2018-02-22T04:28:45.178Z,79.70
2018-02-22T04:31:13.496Z,79.70
2018-02-22T04:33:41.791Z,79.70
2018-02-22T04:36:10.106Z,79.80
2018-02-22T04:38:38.401Z,79.70
2018-02-22T04:41:05.952Z,79.70
2018-02-22T04:43:34.243Z,79.60
2018-02-22T04:46:01.789Z,79.60
2018-02-22T04:48:30.077Z,79.50
2018-02-22T04:50:58.388Z,79.50
2018-02-22T04:53:26.684Z,79.50
2018-02-22T04:55:55.004Z,79.50
2018-02-22T04:58:23.305Z,79.50
2018-02-22T05:00:51.623Z,79.50
2018-02-22T05:03:19.919Z,79.40
2018-02-22T05:05:48.235Z,79.40
2018-02-22T05:08:16.527Z,79.30
2018-02-22T05:10:44.844Z,79.30
2018-02-22T05:13:13.144Z,79.20
2018-02-22T05:15:41.465Z,79.10
2018-02-22T05:18:09.763Z,79.10
2018-02-22T05:20:38.084Z,79.10
2018-02-22T05:23:06.376Z,79.10
2018-02-22T05:25:34.667Z,79.10
2018-02-22T05:28:02.984Z,78.90
2018-02-22T05:30:31.286Z,78.80
2018-02-22T05:32:59.604Z,78.80
2018-02-22T05:35:27.891Z,78.80
2018-02-22T05:37:56.207Z,79.10
2018-02-22T05:40:24.508Z,79.00
2018-02-22T05:42:52.821Z,78.90
2018-02-22T05:45:21.113Z,78.90
2018-02-22T05:47:49.423Z,78.80
2018-02-22T05:50:17.725Z,78.90
2018-02-22T05:52:46.039Z,78.90
2018-02-22T05:55:14.368Z,78.90
2018-02-22T05:57:42.673Z,79.00
2018-02-22T06:00:10.972Z,79.00
2018-02-22T06:02:39.292Z,79.00
2018-02-22T06:05:07.583Z,79.00
2018-02-22T06:07:35.895Z,78.90
2018-02-22T06:10:04.228Z,78.90
2018-02-22T06:12:31.780Z,78.70
2018-02-22T06:15:00.083Z,78.70
2018-02-22T06:17:27.637Z,78.70
2018-02-22T06:19:55.928Z,78.60
2018-02-22T06:22:24.254Z,78.50
2018-02-22T06:24:52.553Z,78.40
2018-02-22T06:27:20.873Z,78.30
2018-02-22T06:29:49.176Z,78.30
2018-02-22T06:32:17.491Z,78.30
2018-02-22T06:34:45.787Z,78.30
2018-02-22T06:37:14.099Z,78.30
2018-02-22T06:39:42.394Z,78.30
2018-02-22T06:42:10.716Z,78.30
2018-02-22T06:44:39.016Z,78.20
2018-02-22T06:47:07.328Z,78.10
2018-02-22T06:49:35.636Z,78.10
2018-02-22T06:52:03.956Z,78.00
2018-02-22T06:54:32.247Z,77.90
2018-02-22T06:57:00.568Z,77.70
2018-02-22T06:59:28.860Z,77.60
2018-02-22T07:01:57.178Z,77.70
2018-02-22T07:04:25.475Z,77.70
2018-02-22T07:06:53.788Z,77.60
2018-02-22T07:09:22.120Z,77.50
2018-02-22T07:11:50.416Z,77.40
2018-02-22T07:14:18.728Z,77.20
2018-02-22T07:16:47.016Z,77.10
2018-02-22T07:19:15.335Z,77.00
2018-02-22T07:21:43.633Z,76.90
2018-02-22T07:24:11.950Z,76.60
2018-02-22T07:26:40.636Z,76.50
2018-02-22T07:29:08.960Z,76.40
2018-02-22T07:31:36.505Z,76.30
2018-02-22T07:34:04.941Z,76.10
2018-02-22T07:36:33.235Z,75.70
2018-02-22T07:39:02.580Z,75.50
2018-02-22T07:41:31.244Z,75.40
2018-02-22T07:43:59.585Z,75.10
2018-02-22T07:46:27.947Z,74.90
2018-02-22T07:48:56.257Z,74.60
2018-02-22T07:51:24.571Z,74.50
2018-02-22T07:53:52.159Z,74.40
2018-02-22T07:56:20.453Z,74.90
2018-02-22T07:58:48.944Z,74.40
2018-02-22T08:01:17.236Z,73.80
2018-02-22T08:03:45.555Z,74.00
2018-02-22T08:06:13.848Z,73.90
2018-02-22T08:08:42.163Z,73.80
2018-02-22T08:11:10.723Z,73.90
2018-02-22T08:13:39.073Z,74.10
2018-02-22T08:16:07.367Z,74.50
2018-02-22T08:18:36.612Z,75.00
2018-02-22T08:21:04.986Z,75.50
2018-02-22T08:23:33.375Z,76.70
2018-02-22T08:26:01.676Z,77.60
2018-02-22T08:28:29.569Z,77.50
2018-02-22T08:30:58.959Z,77.70
2018-02-22T08:33:27.582Z,77.70
2018-02-22T08:35:56.566Z,76.90
2018-02-22T08:38:25.172Z,76.80
2018-02-22T08:40:53.476Z,75.90
2018-02-22T08:43:21.794Z,75.30
2018-02-22T08:45:50.104Z,74.80
2018-02-22T08:48:17.668Z,74.70
2018-02-22T08:50:45.964Z,72.60
2018-02-22T08:53:14.264Z,71.90
2018-02-22T08:55:42.589Z,70.90
2018-02-22T08:58:10.889Z,70.40
2018-02-22T09:00:39.212Z,70.20
2018-02-22T09:03:07.517Z,69.00
2018-02-22T09:05:35.835Z,68.90
2018-02-22T09:08:04.136Z,68.50
2018-02-22T09:10:32.452Z,66.30
2018-02-22T09:13:00.751Z,66.30
2018-02-22T09:15:29.068Z,66.20
2018-02-22T09:17:57.362Z,65.10
2018-02-22T09:20:25.676Z,64.90
2018-02-22T09:22:53.968Z,64.30
2018-02-22T09:25:22.280Z,63.20
2018-02-22T09:27:50.572Z,61.40
2018-02-22T09:30:18.888Z,61.80
2018-02-22T09:32:47.180Z,62.20
2018-02-22T09:35:15.493Z,62.40
2018-02-22T09:37:43.788Z,60.80
2018-02-22T09:40:12.100Z,60.30
2018-02-22T09:42:40.396Z,59.60
2018-02-22T09:45:08.708Z,58.90
2018-02-22T09:47:37.000Z,57.60
2018-02-22T09:50:05.308Z,57.80
2018-02-22T09:52:33.596Z,57.40
2018-02-22T09:55:01.906Z,57.50
2018-02-22T09:57:30.580Z,57.30
2018-02-22T09:59:58.907Z,56.10
2018-02-22T10:02:27.199Z,56.20
2018-02-22T10:04:55.536Z,55.80
2018-02-22T10:07:23.824Z,55.40
2018-02-22T10:09:52.144Z,54.60
2018-02-22T10:12:20.440Z,54.40
2018-02-22T10:14:48.755Z,54.20
2018-02-22T10:17:17.048Z,53.80
2018-02-22T10:19:45.368Z,54.20
2018-02-22T10:22:13.655Z,53.90
2018-02-22T10:24:42.013Z,53.20
2018-02-22T10:27:10.304Z,52.60
2018-02-22T10:29:38.620Z,52.10
2018-02-22T10:32:06.914Z,52.00
2018-02-22T10:34:35.236Z,51.90
2018-02-22T10:37:03.524Z,51.70
2018-02-22T10:39:31.816Z,52.10
2018-02-22T10:42:00.132Z,52.50
2018-02-22T10:44:28.425Z,52.20
2018-02-22T10:46:56.733Z,51.30
2018-02-22T10:49:25.029Z,50.30
2018-02-22T10:51:53.417Z,50.60
2018-02-22T10:54:21.711Z,50.60
2018-02-22T10:56:50.016Z,50.60
2018-02-22T10:59:18.307Z,50.40
2018-02-22T11:01:52.399Z,50.20
2018-02-22T11:04:20.685Z,50.30
2018-02-22T11:06:49.015Z,49.70
2018-02-22T11:09:17.309Z,49.90
2018-02-22T11:11:45.623Z,49.30
2018-02-22T11:14:13.914Z,48.00
2018-02-22T11:16:42.232Z,48.20
2018-02-22T11:19:10.528Z,47.80
2018-02-22T11:21:38.844Z,48.10
2018-02-22T11:24:07.143Z,48.10
2018-02-22T11:26:35.470Z,47.70
2018-02-22T11:29:03.756Z,48.40
2018-02-22T11:31:32.071Z,48.40
2018-02-22T11:34:00.360Z,48.30
2018-02-22T11:36:28.669Z,47.80
2018-02-22T11:38:57.041Z,47.90
2018-02-22T11:41:24.529Z,47.90
2018-02-22T11:43:52.821Z,47.10
2018-02-22T11:46:21.128Z,46.80
2018-02-22T11:48:49.414Z,46.80
2018-02-22T11:51:17.731Z,47.30
2018-02-22T11:53:46.080Z,48.00
2018-02-22T11:56:13.676Z,48.00
2018-02-22T11:58:41.974Z,47.10
2018-02-22T12:01:09.637Z,47.00
2018-02-22T12:03:37.932Z,45.20
2018-02-22T12:06:06.248Z,45.70
2018-02-22T12:08:34.539Z,46.30
2018-02-22T12:11:02.857Z,46.30
2018-02-22T12:13:31.144Z,45.60
2018-02-22T12:15:59.456Z,44.30
2018-02-22T12:18:27.740Z,44.50
2018-02-22T12:20:56.052Z,44.50
2018-02-22T12:23:24.340Z,44.20
2018-02-22T12:25:52.627Z,44.10
2018-02-22T12:28:20.931Z,44.10
2018-02-22T12:30:49.220Z,42.70
2018-02-22T12:33:17.537Z,42.30
2018-02-22T12:35:45.827Z,42.10
2018-02-22T12:38:14.147Z,41.40
2018-02-22T12:40:42.428Z,41.50
2018-02-22T12:43:10.739Z,41.00
2018-02-22T12:45:39.024Z,41.20
2018-02-22T12:48:07.413Z,41.00
2018-02-22T12:50:35.765Z,41.30
2018-02-22T12:53:04.104Z,40.70
2018-02-22T12:55:31.708Z,40.70
2018-02-22T12:58:00.022Z,39.00
2018-02-22T13:00:28.309Z,38.90
2018-02-22T13:02:56.624Z,38.60
2018-02-22T13:05:24.911Z,39.50
2018-02-22T13:07:53.236Z,40.40
2018-02-22T13:10:21.538Z,40.20
2018-02-22T13:12:49.857Z,40.40
2018-02-22T13:15:18.160Z,39.70
2018-02-22T13:17:46.482Z,39.00
2018-02-22T13:20:14.794Z,38.90
2018-02-22T13:22:43.114Z,39.10
2018-02-22T13:25:10.869Z,39.00
2018-02-22T13:27:39.170Z,39.50
2018-02-22T13:30:07.476Z,38.60
2018-02-22T13:32:47.683Z,38.80
2018-02-22T13:38:11.288Z,37.70
2018-02-22T13:40:39.575Z,38.20
2018-02-22T13:43:07.883Z,37.60
2018-02-22T13:45:36.173Z,38.10
2018-02-22T13:48:04.484Z,38.30
2018-02-22T13:50:44.560Z,38.30
2018-02-22T13:53:12.864Z,38.30
2018-02-22T13:55:41.149Z,39.20
2018-02-22T13:58:09.450Z,38.30
2018-02-22T14:01:01.519Z,38.10
2018-02-22T14:03:29.829Z,36.70
2018-02-22T14:05:58.120Z,36.80
2018-02-22T14:08:38.175Z,36.10
2018-02-22T14:11:06.465Z,36.70
2018-02-22T14:13:34.774Z,36.90
2018-02-22T14:16:03.056Z,36.40
2018-02-22T14:18:31.361Z,36.70
2018-02-22T14:20:59.652Z,37.50
2018-02-22T14:23:27.955Z,37.80
2018-02-22T14:25:56.245Z,37.90
2018-02-22T14:28:24.557Z,37.20
2018-02-22T14:30:52.845Z,37.00
2018-02-22T14:33:21.180Z,37.00
2018-02-22T14:35:49.472Z,37.60
2018-02-22T14:38:17.784Z,37.40
2018-02-22T14:40:46.073Z,37.40
2018-02-22T14:43:14.384Z,36.30
2018-02-22T14:45:42.678Z,36.60
2018-02-22T14:48:10.992Z,36.50
2018-02-22T14:50:39.279Z,36.60
2018-02-22T14:53:07.771Z,36.90
2018-02-22T14:55:36.068Z,37.70
2018-02-22T14:58:04.355Z,37.20
2018-02-22T15:00:32.660Z,37.30
2018-02-22T15:03:00.944Z,38.40
2018-02-22T15:05:29.260Z,38.60
2018-02-22T15:07:57.554Z,38.70
2018-02-22T15:10:25.865Z,39.20
2018-02-22T15:12:54.152Z,39.00
2018-02-22T15:15:21.695Z,39.00
2018-02-22T15:17:49.992Z,38.60
2018-02-22T15:20:18.962Z,38.40
2018-02-22T15:22:47.271Z,39.10
2018-02-22T15:25:15.586Z,39.40
2018-02-22T15:27:43.880Z,39.40
2018-02-22T15:30:12.192Z,39.70
2018-02-22T15:32:40.734Z,39.20
2018-02-22T15:35:09.057Z,39.50
2018-02-22T15:37:37.364Z,39.70
2018-02-22T15:40:05.672Z,40.20
2018-02-22T15:42:33.967Z,40.50
2018-02-22T15:45:02.274Z,40.50
2018-02-22T15:47:30.562Z,41.20
2018-02-22T15:49:58.881Z,41.40
2018-02-22T15:52:27.176Z,41.40
2018-02-22T15:54:55.490Z,41.10
2018-02-22T15:57:23.788Z,41.10
2018-02-22T15:59:52.120Z,41.10
2018-02-22T16:02:20.423Z,41.30
2018-02-22T16:04:48.733Z,41.80
2018-02-22T16:07:17.028Z,43.00
2018-02-22T16:09:45.339Z,42.80
2018-02-22T16:12:13.632Z,42.80
2018-02-22T16:14:41.945Z,42.70
2018-02-22T16:17:10.237Z,43.10
2018-02-22T16:19:38.543Z,43.00
2018-02-22T16:22:06.841Z,43.30
2018-02-22T16:24:35.156Z,43.20
2018-02-22T16:27:02.676Z,43.20
2018-02-22T16:29:30.988Z,44.00
2018-02-22T16:31:59.296Z,44.40
2018-02-22T16:34:27.622Z,44.30
2018-02-22T16:36:55.924Z,44.80
2018-02-22T16:39:25.183Z,44.60
2018-02-22T16:41:53.504Z,44.70
2018-02-22T16:44:21.804Z,44.90
2018-02-22T16:46:50.124Z,45.50
2018-02-22T16:49:18.411Z,45.50
2018-02-22T16:51:46.744Z,45.70
2018-02-22T16:54:15.032Z,46.00
2018-02-22T16:56:43.348Z,46.50
2018-02-22T16:59:11.640Z,46.80
2018-02-22T17:01:39.959Z,46.40
2018-02-22T17:04:08.256Z,46.70
2018-02-22T17:06:36.569Z,46.90
2018-02-22T17:09:04.867Z,47.00
2018-02-22T17:11:33.180Z,47.50
2018-02-22T17:14:01.480Z,47.70
2018-02-22T17:16:29.794Z,47.70
2018-02-22T17:18:58.089Z,47.90
2018-02-22T17:21:26.400Z,48.20
2018-02-22T17:23:54.697Z,48.10
2018-02-22T17:26:28.625Z,48.50
2018-02-22T17:29:02.612Z,48.70
2018-02-22T17:31:36.688Z,49.00
2018-02-22T17:34:04.994Z,49.30
2018-02-22T17:36:50.008Z,49.40
2018-02-22T17:39:33.180Z,49.50
2018-02-22T17:42:01.488Z,49.60
2018-02-22T17:44:29.789Z,49.60
2018-02-22T17:46:58.108Z,49.60
2018-02-22T17:49:26.400Z,49.80
2018-02-22T17:51:54.717Z,50.00
2018-02-22T17:54:23.007Z,50.60
2018-02-22T17:56:51.322Z,50.60
2018-02-22T17:59:19.621Z,50.50
2018-02-22T18:01:47.998Z,50.80
2018-02-22T18:04:16.309Z,51.00
2018-02-22T18:06:44.639Z,51.00
2018-02-22T18:09:12.990Z,51.00
2018-02-22T18:11:41.340Z,51.20
2018-02-22T18:14:08.870Z,51.20
2018-02-22T18:16:37.194Z,51.40
2018-02-22T18:19:05.525Z,51.50
2018-02-22T18:21:33.844Z,51.60
2018-02-22T18:24:02.164Z,51.60
2018-02-22T18:26:30.504Z,51.90
2018-02-22T18:28:58.835Z,52.00
2018-02-22T18:31:27.165Z,52.40
2018-02-22T18:33:55.473Z,52.70
2018-02-22T18:36:23.788Z,53.00
2018-02-22T18:38:57.698Z,53.10
2018-02-22T18:41:26.018Z,53.60
2018-02-22T18:43:59.856Z,53.60
2018-02-22T18:46:28.172Z,53.50
2018-02-22T18:48:56.464Z,53.50
2018-02-22T18:51:24.776Z,53.50
2018-02-22T18:53:53.065Z,53.90
2018-02-22T18:56:21.356Z,53.70
2018-02-22T18:58:49.680Z,54.20
2018-02-22T19:01:17.990Z,54.30
2018-02-22T19:03:46.308Z,54.80
2018-02-22T19:06:14.623Z,54.80
2018-02-22T19:08:42.956Z,54.60
2018-02-22T19:11:11.263Z,54.70
2018-02-22T19:13:39.576Z,54.70
2018-02-22T19:16:07.867Z,54.60
2018-02-22T19:18:36.202Z,54.40
2018-02-22T19:21:04.496Z,54.40
2018-02-22T19:23:32.812Z,54.70
2018-02-22T19:26:01.114Z,54.70
2018-02-22T19:28:29.435Z,54.50
2018-02-22T19:30:57.765Z,54.00
2018-02-22T19:33:26.113Z,53.70
2018-02-22T19:35:54.409Z,53.70
2018-02-22T19:38:22.744Z,52.80
2018-02-22T19:40:51.049Z,52.80
2018-02-22T19:43:19.449Z,53.40
2018-02-22T19:45:47.804Z,52.30
2018-02-22T19:48:15.385Z,52.30
2018-02-22T19:50:43.748Z,52.10
2018-02-22T19:53:12.231Z,52.30
2018-02-22T19:55:39.796Z,52.30
2018-02-22T19:58:08.108Z,52.30
2018-02-22T20:00:36.412Z,52.50
2018-02-22T20:03:04.740Z,52.50
2018-02-22T20:05:33.100Z,52.60
2018-02-22T20:08:01.774Z,52.70
2018-02-22T20:10:30.104Z,53.00
2018-02-22T20:12:58.436Z,53.20
2018-02-22T20:15:26.740Z,53.40
2018-02-22T20:17:55.065Z,53.50
2018-02-22T20:20:23.399Z,53.60
2018-02-22T20:22:51.733Z,53.70
2018-02-22T20:25:19.268Z,53.70
2018-02-22T20:27:47.610Z,54.50
2018-02-22T20:30:15.916Z,54.90
2018-02-22T20:32:44.262Z,55.10
2018-02-22T20:35:12.560Z,55.10
2018-02-22T20:37:40.859Z,55.20
2018-02-22T20:40:09.204Z,55.60
2018-02-22T20:42:37.528Z,55.60
2018-02-22T20:45:05.893Z,55.80
2018-02-22T20:47:34.230Z,55.70
2018-02-22T20:50:02.556Z,55.80
2018-02-22T20:52:31.495Z,55.90
2018-02-22T20:55:17.488Z,56.20
2018-02-22T20:57:45.799Z,56.40
2018-02-22T21:00:14.135Z,56.50
2018-02-22T21:02:42.433Z,56.60
2018-02-22T21:05:10.748Z,56.70
2018-02-22T21:07:39.129Z,57.10
2018-02-22T21:10:07.484Z,56.90
2018-02-22T21:12:37.925Z,57.00
2018-02-22T21:15:05.653Z,56.80
2018-02-22T21:17:34.010Z,56.60
2018-02-22T21:20:02.389Z,56.60
2018-02-22T21:22:30.753Z,56.70
2018-02-22T21:24:59.068Z,56.90
2018-02-22T21:27:27.370Z,57.20
2018-02-22T21:29:55.808Z,57.50
2018-02-22T21:32:24.124Z,57.60
2018-02-22T21:34:52.468Z,57.60
2018-02-22T21:37:20.787Z,57.60
2018-02-22T21:39:49.120Z,57.50
2018-02-22T21:42:16.654Z,57.50
2018-02-22T21:44:44.976Z,57.90
2018-02-22T21:47:13.276Z,57.90
2018-02-22T21:49:41.611Z,57.70
2018-02-22T21:52:09.908Z,57.60
2018-02-22T21:54:38.232Z,57.80
2018-02-22T21:57:06.564Z,57.70
2018-02-22T21:59:34.883Z,57.60
2018-02-22T22:02:03.180Z,57.60
2018-02-22T22:04:31.496Z,57.60
2018-02-22T22:06:59.800Z,57.50
2018-02-22T22:09:28.127Z,57.50
2018-02-22T22:11:56.768Z,57.50
2018-02-22T22:14:25.068Z,57.60
2018-02-22T22:16:53.395Z,57.80
2018-02-22T22:19:21.698Z,57.90
2018-02-22T22:21:50.012Z,57.80
2018-02-22T22:24:18.327Z,57.70
2018-02-22T22:26:46.647Z,57.70
2018-02-22T22:29:14.945Z,57.70
2018-02-22T22:31:43.260Z,57.70
2018-02-22T22:34:11.553Z,57.80
2018-02-22T22:36:39.877Z,58.00
2018-02-22T22:39:08.183Z,58.10
2018-02-22T22:41:36.509Z,58.30
2018-02-22T22:44:04.854Z,58.40
2018-02-22T22:46:33.140Z,58.50
2018-02-22T22:49:01.432Z,59.20
2018-02-22T22:51:29.757Z,59.00
2018-02-22T22:53:58.061Z,58.80
2018-02-22T22:56:27.567Z,59.00
2018-02-22T22:58:55.860Z,59.30
2018-02-22T23:01:24.180Z,59.50
2018-02-22T23:03:51.708Z,59.50
2018-02-22T23:06:20.025Z,60.00
2018-02-22T23:08:48.319Z,60.00
2018-02-22T23:11:16.640Z,60.40
2018-02-22T23:13:44.931Z,60.90
2018-02-22T23:16:13.253Z,60.70
2018-02-22T23:18:42.527Z,61.00
2018-02-22T23:21:10.850Z,61.10
2018-02-22T23:23:39.149Z,61.00
2018-02-22T23:26:07.469Z,61.40
2018-02-22T23:28:35.772Z,61.40
2018-02-22T23:31:04.116Z,61.60
2018-02-22T23:33:32.413Z,62.10
2018-02-22T23:36:00.779Z,62.20
2018-02-22T23:38:29.060Z,62.30
2018-02-22T23:41:00.241Z,63.10
2018-02-22T23:43:28.536Z,62.60
2018-02-22T23:45:56.860Z,63.00
2018-02-22T23:48:25.160Z,63.20
2018-02-22T23:50:53.482Z,63.60
2018-02-22T23:53:21.784Z,63.90
2018-02-22T23:55:50.084Z,63.90
2018-02-22T23:58:18.403Z,64.20
